»·PEaware :: ASA621 KMFR-KSFO

ASA621 :: KMFR-KSFO

FLIGHT INFORMATION

Flight Status: Arrived
Operator:
Alaska Airlines
More flights by this operator :: More flights under this callsign
Pilot: Tanner C. (11250)
Aircraft: MCDONNELL-DOUGLAS MD-88
(MD88)
More flights by this aircraft type
Origin: KMFR Rogue Valley Intl-Medford
United States
Destination: KSFO San Francisco Intl
United States
More flights between these airports :: More routes between these airports
Route: +JKSN1 OED MLBEC STLER3
File this flight plan on PilotEdge
Remarks:
Altitude:
(Current/Filed)
34,000ft
Speed:
(Current/Filed)
420kts
Departed: 06-Jan-19 01:21 PM
Arrived: 06-Jan-19 02:23 PM
Distance/Time
Traveled:
286nm/1:02
Distance/Time
To Go:
Arrived

Flight Plot

Page will automatically refresh every two minutes.

Flight plan parsing failed; only flown route is shown


Map Options




Map Legend


Flown Route
Filed Route
Departure Airport
Arrival Airport
Navaid (VOR, NDB)
Fix

Horizontal Profiles

Position Reports

Time Latitude Longitude Heading Altitude Ground
Speed
06-Jan-19 12:56 42.368134 -122.872737 190 1319ft 0kts
06-Jan-19 12:57 42.368134 -122.872737 190 1319ft 0kts
06-Jan-19 12:58 42.368134 -122.872737 190 1319ft 0kts
06-Jan-19 12:59 42.368134 -122.872737 190 1319ft 0kts
06-Jan-19 13:00 42.368134 -122.872737 190 1319ft 0kts
06-Jan-19 13:01 42.368134 -122.872737 190 1319ft 0kts
06-Jan-19 13:02 42.368134 -122.872737 190 1319ft 0kts
06-Jan-19 13:02 42.368134 -122.872737 190 1319ft 0kts
06-Jan-19 13:03 42.368134 -122.872737 190 1319ft 0kts
06-Jan-19 13:04 42.368134 -122.872737 190 1319ft 0kts
06-Jan-19 13:05 42.368134 -122.872737 190 1319ft 0kts
06-Jan-19 13:07 42.368134 -122.872737 190 1319ft 0kts
06-Jan-19 13:08 42.368158 -122.872731 190 1319ft 0kts
06-Jan-19 13:08 42.368611 -122.872706 172 1318ft 2kts
06-Jan-19 13:09 42.369027 -122.872856 156 1317ft 0kts
06-Jan-19 13:10 42.369027 -122.872856 156 1317ft 0kts
06-Jan-19 13:11 42.369027 -122.872856 156 1317ft 0kts
06-Jan-19 13:12 42.368546 -122.872130 104 1318ft 7kts
06-Jan-19 13:13 42.364585 -122.869404 158 1326ft 18kts
06-Jan-19 13:14 42.363677 -122.868837 116 1328ft 0kts
06-Jan-19 13:15 42.363677 -122.868837 116 1328ft 0kts
06-Jan-19 13:16 42.363677 -122.868837 116 1328ft 0kts
06-Jan-19 13:17 42.363677 -122.868837 116 1328ft 0kts
06-Jan-19 13:18 42.363677 -122.868837 116 1328ft 0kts
06-Jan-19 13:19 42.363821 -122.867776 41 1328ft 17kts
06-Jan-19 13:20 42.392573 -122.882909 336 2517ft 170kts
06-Jan-19 13:21 42.425724 -122.912548 314 4974ft 168kts
06-Jan-19 13:22 42.478071 -122.921147 350 7791ft 236kts
06-Jan-19 13:23 42.532741 -122.874077 72 11377ft 310kts
06-Jan-19 13:24 42.489439 -122.773708 160 14640ft 364kts
06-Jan-19 13:25 42.391745 -122.779085 204 17719ft 376kts
06-Jan-19 13:26 42.343987 -122.882313 280 20656ft 352kts
06-Jan-19 13:27 42.402530 -122.979010 310 22948ft 365kts
06-Jan-19 13:28 42.419697 -123.117567 255 22980ft 425kts
06-Jan-19 13:29 42.340304 -123.229572 204 22701ft 454kts
06-Jan-19 13:30 42.215551 -123.236163 179 22672ft 464kts
06-Jan-19 13:31 42.089638 -123.225691 179 24495ft 464kts
06-Jan-19 13:32 41.962650 -123.215154 179 27088ft 458kts
06-Jan-19 13:33 41.843065 -123.205231 180 29918ft 436kts
06-Jan-19 13:34 41.728729 -123.195764 180 32753ft 406kts
06-Jan-19 13:35 41.617128 -123.186566 180 33735ft 422kts
06-Jan-19 13:36 41.496058 -123.176521 179 33730ft 454kts
06-Jan-19 13:37 41.371539 -123.166173 179 33733ft 452kts
06-Jan-19 13:38 41.248870 -123.156002 179 33777ft 452kts
06-Jan-19 13:39 41.125005 -123.145727 179 33779ft 452kts
06-Jan-19 13:40 41.000549 -123.135404 179 33779ft 452kts
06-Jan-19 13:41 40.879081 -123.125327 179 33776ft 452kts
06-Jan-19 13:42 40.756769 -123.115178 179 33776ft 452kts
06-Jan-19 13:43 40.631842 -123.104813 179 33777ft 452kts
06-Jan-19 13:44 40.506685 -123.094427 179 33777ft 452kts
06-Jan-19 13:45 40.381900 -123.084072 179 33778ft 452kts
06-Jan-19 13:46 40.257513 -123.073749 179 33778ft 452kts
06-Jan-19 13:47 40.132537 -123.063375 179 33821ft 452kts
06-Jan-19 13:48 40.008155 -123.053053 179 33834ft 452kts
06-Jan-19 13:49 39.886672 -123.042904 178 33830ft 453kts
06-Jan-19 13:50 39.768811 -123.026281 182 33841ft 427kts
06-Jan-19 13:51 39.654262 -123.018806 181 33833ft 420kts
06-Jan-19 13:52 39.539463 -123.010078 181 33811ft 422kts
06-Jan-19 13:53 39.426201 -123.001477 179 33806ft 408kts
06-Jan-19 13:54 39.310730 -122.992526 181 33813ft 438kts
06-Jan-19 13:55 39.191480 -122.983379 181 33803ft 439kts
06-Jan-19 13:56 39.072760 -122.974268 181 33803ft 438kts
06-Jan-19 13:57 38.953377 -122.965109 181 33803ft 437kts
06-Jan-19 13:58 38.841223 -122.949925 173 32685ft 431kts
06-Jan-19 13:59 38.728069 -122.915618 171 30221ft 418kts
06-Jan-19 14:00 38.619107 -122.883353 171 28120ft 408kts
06-Jan-19 14:01 38.512369 -122.851918 169 25848ft 395kts
06-Jan-19 14:02 38.406405 -122.820852 170 22772ft 399kts
06-Jan-19 14:03 38.300090 -122.789639 169 19698ft 397kts
06-Jan-19 14:04 38.194750 -122.758794 169 16930ft 381kts
06-Jan-19 14:05 38.102164 -122.731870 169 16849ft 321kts
06-Jan-19 14:06 38.018124 -122.707514 169 16494ft 326kts
06-Jan-19 14:07 37.929895 -122.681962 169 13569ft 321kts
06-Jan-19 14:08 37.849114 -122.681345 190 10170ft 289kts
06-Jan-19 14:09 37.776035 -122.696631 185 8006ft 258kts
06-Jan-19 14:10 37.705080 -122.696665 141 7993ft 267kts
06-Jan-19 14:11 37.683074 -122.613929 94 7986ft 260kts
06-Jan-19 14:12 37.671355 -122.527012 97 7985ft 260kts
06-Jan-19 14:13 37.700521 -122.460014 16 7991ft 255kts
06-Jan-19 14:14 37.761749 -122.427845 32 7134ft 245kts
06-Jan-19 14:15 37.816337 -122.381952 32 5945ft 230kts
06-Jan-19 14:16 37.838239 -122.321874 107 4818ft 216kts
06-Jan-19 14:17 37.807277 -122.262919 146 3378ft 225kts
06-Jan-19 14:18 37.754756 -122.280684 215 2979ft 196kts
06-Jan-19 14:19 37.710218 -122.312332 203 2240ft 182kts
06-Jan-19 14:20 37.668953 -122.339618 199 950ft 140kts
06-Jan-19 14:21 37.637757 -122.360233 200 283ft 135kts
06-Jan-19 14:22 37.616479 -122.375741 276 19ft 7kts
06-Jan-19 14:23 37.616291 -122.379820 215 19ft 15kts

Navigation Log

Ident Type
Flight plan parsing failed, navigation log unavailable